createdAt,value
2023-01-01T00:03:52.868Z,21.67
2023-01-01T00:09:12.444Z,23.20
2023-01-01T00:14:16.889Z,20.88
2023-01-01T00:19:21.217Z,19.60
2023-01-01T00:24:26.927Z,21.88
2023-01-01T00:29:31.148Z,21.77
2023-01-01T00:34:35.486Z,21.05
2023-01-01T00:39:41.433Z,22.92
2023-01-01T00:44:45.716Z,21.67
2023-01-01T00:49:50.007Z,27.30
2023-01-01T00:54:55.674Z,22.90
2023-01-01T00:59:59.890Z,22.50
2023-01-01T01:05:04.857Z,20.25
2023-01-01T01:10:12.259Z,21.73
2023-01-01T01:15:16.610Z,23.55
2023-01-01T01:20:21.179Z,24.50
2023-01-01T01:25:26.879Z,22.63
2023-01-01T01:30:31.758Z,25.77
2023-01-01T01:35:36.109Z,23.60
2023-01-01T01:40:45.747Z,24.58
2023-01-01T01:45:51.208Z,24.00
2023-01-01T01:50:56.755Z,31.02
2023-01-01T01:56:04.538Z,25.88
2023-01-01T02:01:09.189Z,23.08
2023-01-01T02:06:14.549Z,23.88
2023-01-01T02:11:22.197Z,26.85
2023-01-01T02:16:34.901Z,25.92
2023-01-01T02:21:49.071Z,24.48
2023-01-01T02:27:00.225Z,24.90
2023-01-01T02:32:10.797Z,24.75
2023-01-01T02:37:18.536Z,29.13
2023-01-01T02:42:26.505Z,26.25
2023-01-01T02:47:32.236Z,24.77
2023-01-01T02:53:03.074Z,24.88
2023-01-01T02:58:32.444Z,22.45
2023-01-01T03:03:41.377Z,24.63
2023-01-01T03:08:50.337Z,22.15
2023-01-01T03:14:05.508Z,21.73
2023-01-01T03:19:17.832Z,23.47
2023-01-01T03:24:26.258Z,22.83
2023-01-01T03:29:35.041Z,21.25
2023-01-01T03:34:47.493Z,24.92
2023-01-01T03:39:54.518Z,19.88
2023-01-01T03:45:04.812Z,21.67
2023-01-01T03:50:11.448Z,20.33
2023-01-01T03:55:21.070Z,18.00
2023-01-01T04:00:28.327Z,20.20
2023-01-01T04:05:37.761Z,20.33
2023-01-01T04:10:45.170Z,18.60
2023-01-01T04:15:49.525Z,16.42
2023-01-01T04:20:55.297Z,18.70
2023-01-01T04:25:59.602Z,19.45
2023-01-01T04:31:04.028Z,19.73
2023-01-01T04:36:12.044Z,18.73
2023-01-01T04:41:16.726Z,16.17
2023-01-01T04:46:22.797Z,22.90
2023-01-01T04:51:28.484Z,21.33
2023-01-01T05:01:36.943Z,18.55
2023-01-01T05:06:42.850Z,18.25
2023-01-01T05:11:47.065Z,20.65
2023-01-01T05:16:51.459Z,16.80
2023-01-01T05:21:57.199Z,16.80
2023-01-01T05:27:01.532Z,22.80
2023-01-01T05:37:11.627Z,16.02
2023-01-01T05:47:22.429Z,18.95
2023-01-01T05:52:28.506Z,17.23
2023-01-01T05:57:32.759Z,17.83
2023-01-01T06:02:37.131Z,21.83
2023-01-01T06:07:48.319Z,18.48
2023-01-01T06:12:54.837Z,15.40
2023-01-01T06:17:59.812Z,15.75
2023-01-01T06:23:05.480Z,15.47
2023-01-01T06:28:11.933Z,18.08
2023-01-01T06:33:18.619Z,19.13
2023-01-01T06:38:25.467Z,18.00
2023-01-01T06:43:31.743Z,20.42
2023-01-01T06:48:38.196Z,18.38
2023-01-01T06:53:44.357Z,17.70
2023-01-01T06:58:48.769Z,18.70
2023-01-01T07:03:55.019Z,17.67
2023-01-01T07:09:00.987Z,18.67
2023-01-01T07:14:05.705Z,14.80
2023-01-01T07:19:10.119Z,15.40
2023-01-01T07:24:17.378Z,15.85
2023-01-01T07:29:21.629Z,17.23
2023-01-01T07:34:25.924Z,17.63
2023-01-01T07:39:31.727Z,16.48
2023-01-01T07:44:35.996Z,20.50
2023-01-01T07:49:40.491Z,17.63
2023-01-01T07:54:46.398Z,19.50
2023-01-01T07:59:50.650Z,15.65
2023-01-01T08:04:55.087Z,14.52
2023-01-01T08:10:00.866Z,17.55
2023-01-01T08:20:11.425Z,18.55
2023-01-01T08:25:17.339Z,21.33
2023-01-01T08:35:25.685Z,20.05
2023-01-01T08:40:31.381Z,16.60
2023-01-01T08:45:35.730Z,17.90
2023-01-01T08:50:40.084Z,16.15
2023-01-01T08:55:46.020Z,17.95
2023-01-01T09:00:50.872Z,14.48
2023-01-01T09:05:55.773Z,16.42
2023-01-01T09:11:02.887Z,19.13
2023-01-01T09:16:08.208Z,18.58
2023-01-01T09:21:12.602Z,18.13
2023-01-01T09:26:18.363Z,15.35
2023-01-01T09:31:22.749Z,16.65
2023-01-01T09:36:30.023Z,17.73
2023-01-01T09:41:54.075Z,15.25
2023-01-01T09:47:02.014Z,17.95
2023-01-01T09:52:07.045Z,15.20
2023-01-01T09:57:20.036Z,16.37
2023-01-01T10:02:41.114Z,15.95
2023-01-01T10:07:51.187Z,15.10
2023-01-01T10:13:06.284Z,18.15
2023-01-01T10:23:25.743Z,18.20
2023-01-01T10:28:40.684Z,16.55
2023-01-01T10:33:46.853Z,15.63
2023-01-01T10:38:52.396Z,16.10
2023-01-01T10:43:59.146Z,20.23
2023-01-01T10:49:12.549Z,18.73
2023-01-01T10:54:32.107Z,16.45
2023-01-01T10:59:49.830Z,14.88
2023-01-01T11:05:21.051Z,18.52
2023-01-01T11:10:28.622Z,20.25
2023-01-01T11:15:38.822Z,17.45
2023-01-01T11:20:43.805Z,13.15
2023-01-01T11:26:07.189Z,15.23
2023-01-01T11:31:20.164Z,13.07
2023-01-01T11:36:27.065Z,13.13
2023-01-01T11:41:42.833Z,13.68
2023-01-01T11:46:51.538Z,14.63
2023-01-01T11:51:56.094Z,18.52
2023-01-01T11:57:08.496Z,16.08
2023-01-01T12:02:20.440Z,17.02
2023-01-01T12:07:30.828Z,15.10
2023-01-01T12:12:40.194Z,15.05
2023-01-01T12:17:50.636Z,11.50
2023-01-01T12:22:57.328Z,15.80
2023-01-01T12:28:11.762Z,11.82
2023-01-01T12:33:46.443Z,14.52
2023-01-01T12:39:29.562Z,17.50
2023-01-01T12:44:44.622Z,13.00
2023-01-01T12:50:05.750Z,20.27
2023-01-01T12:55:36.341Z,14.32
2023-01-01T13:00:43.787Z,11.63
2023-01-01T13:05:54.556Z,11.65
2023-01-01T13:11:02.628Z,12.23
2023-01-01T13:16:08.127Z,10.70
2023-01-01T13:21:25.858Z,12.00
2023-01-01T13:26:41.089Z,10.15
2023-01-01T13:32:04.369Z,11.47
2023-01-01T13:37:50.128Z,14.40
2023-01-01T13:43:07.504Z,9.63
2023-01-01T13:48:27.859Z,13.40
2023-01-01T13:53:59.896Z,13.70
2023-01-01T13:59:30.155Z,14.35
2023-01-01T14:04:40.955Z,13.18
2023-01-01T14:09:46.679Z,16.35
2023-01-01T14:19:55.320Z,12.73
2023-01-01T14:25:07.253Z,12.35
2023-01-01T14:30:18.937Z,12.60
2023-01-01T14:35:23.239Z,10.40
2023-01-01T14:40:29.510Z,15.93
2023-01-01T14:45:36.960Z,14.57
2023-01-01T14:50:41.443Z,13.32
2023-01-01T14:55:49.969Z,15.43
2023-01-01T15:00:54.686Z,15.43
2023-01-01T15:06:01.215Z,15.57
2023-01-01T15:11:07.692Z,14.65
2023-01-01T15:16:19.778Z,16.98
2023-01-01T15:21:35.409Z,17.45
2023-01-01T15:26:44.463Z,20.85
2023-01-01T15:31:51.623Z,22.08
2023-01-01T15:36:58.352Z,19.20
2023-01-01T15:42:04.171Z,16.90
2023-01-01T15:52:27.939Z,17.67
2023-01-01T15:57:33.825Z,20.98
2023-01-01T16:07:44.799Z,15.55
2023-01-01T16:12:50.600Z,20.37
2023-01-01T16:17:55.270Z,19.77
2023-01-01T16:22:59.532Z,14.35
2023-01-01T16:28:06.067Z,14.35
2023-01-01T16:33:16.224Z,18.10
2023-01-01T16:38:20.565Z,15.50
2023-01-01T16:43:26.351Z,17.40
2023-01-01T16:48:31.303Z,18.83
2023-01-01T16:53:37.562Z,15.02
2023-01-01T16:58:54.206Z,18.38
2023-01-01T17:04:04.682Z,18.52
2023-01-01T17:09:09.315Z,20.13
2023-01-01T17:14:15.200Z,17.95
2023-01-01T17:24:23.648Z,19.17
2023-01-01T17:29:29.603Z,17.48
2023-01-01T17:34:33.962Z,14.15
2023-01-01T17:39:38.349Z,20.98
2023-01-01T17:44:44.172Z,16.40
2023-01-01T17:54:53.205Z,16.95
2023-01-01T17:59:59.987Z,17.90
2023-01-01T18:05:04.479Z,18.45
2023-01-01T18:10:09.336Z,18.60
2023-01-01T18:15:15.134Z,24.27
2023-01-01T18:20:19.513Z,21.17
2023-01-01T18:25:23.903Z,17.77
2023-01-01T18:30:29.692Z,23.30
2023-01-01T18:40:39.978Z,26.35
2023-01-01T18:45:45.726Z,27.70
2023-01-01T18:50:50.065Z,21.95
2023-01-01T18:55:59.454Z,23.00
2023-01-01T19:01:14.350Z,21.52
2023-01-01T19:06:27.670Z,17.42
2023-01-01T19:11:32.172Z,23.38
2023-01-01T19:16:38.040Z,25.35
2023-01-01T19:21:51.052Z,23.25
2023-01-01T19:27:00.166Z,23.02
2023-01-01T19:32:06.177Z,19.85
2023-01-01T19:37:11.310Z,23.83
2023-01-01T19:42:15.686Z,25.00
2023-01-01T19:47:21.470Z,18.60
2023-01-01T19:52:25.965Z,24.23
2023-01-01T19:57:30.317Z,19.75
2023-01-01T20:02:46.111Z,19.10
2023-01-01T20:07:52.405Z,18.23
2023-01-01T20:12:56.949Z,15.20
2023-01-01T20:18:02.823Z,20.35
2023-01-01T20:28:28.800Z,14.68
2023-01-01T20:33:34.963Z,14.77
2023-01-01T20:43:45.191Z,14.48
2023-01-01T20:48:51.069Z,17.83
2023-01-01T20:53:55.580Z,31.45
2023-01-01T20:59:17.676Z,18.85
2023-01-01T21:04:26.720Z,12.82
2023-01-01T21:09:31.241Z,13.50
2023-01-01T21:14:36.076Z,15.63
2023-01-01T21:19:41.901Z,13.45
2023-01-01T21:29:59.110Z,13.00
2023-01-01T21:35:17.254Z,24.67
2023-01-01T21:40:38.907Z,13.93
2023-01-01T21:45:47.254Z,13.35
2023-01-01T21:50:53.308Z,19.35
2023-01-01T21:55:58.522Z,10.20
2023-01-01T22:01:14.051Z,12.00
2023-01-01T22:06:20.163Z,10.50
2023-01-01T22:11:27.689Z,12.25
2023-01-01T22:16:32.295Z,13.95
2023-01-01T22:21:38.623Z,12.85
2023-01-01T22:26:43.139Z,13.85
2023-01-01T22:31:49.509Z,9.95
2023-01-01T22:36:55.970Z,10.90
2023-01-01T22:42:00.348Z,14.48
2023-01-01T22:47:05.071Z,15.27
2023-01-01T22:52:12.198Z,25.95
2023-01-01T22:57:16.610Z,13.48
2023-01-01T23:02:20.982Z,12.70
2023-01-01T23:07:27.152Z,11.00
2023-01-01T23:12:31.756Z,13.13
2023-01-01T23:17:36.083Z,14.77
2023-01-01T23:22:45.312Z,11.18
2023-01-01T23:27:53.500Z,10.32
2023-01-01T23:32:57.952Z,13.75
2023-01-01T23:38:03.833Z,18.35
2023-01-01T23:43:08.258Z,12.40
2023-01-01T23:48:12.869Z,25.55
2023-01-01T23:53:18.649Z,17.45
